Flight Number: EUR1175 Duration: 2:20
Departure: Madrid / Barajas (LEMD) at 08:30 Distance: 955 Nm
Arrival: Tenerife Norte (GCXO) at 10:50 Equipment: A321

Weather Information
Madrid / Barajas, Spain (LEMD) 40-27N 003-33W 582M Nov 19, 2018 - 05:00 PM EST / 2018.11.19 2200 UTC
Wind: Variable at 2 MPH (2 KT):0
Visibility: greater than 7 mile(s):0
Sky conditions: mostly cloudy Weather: light rain Temperature: 51 F (11 C) Dew Point: 50 F (10 C) Relative Humidity: 93% Pressure (altimeter): 29.59 in. Hg (1002 hPa)
ob: LEMD 192200Z VRB02KT 9999 -RA BKN048 BKN060 11/10 Q1002 R88/29//95 NOSIG cycle: 22
Sunrise: 07:09 Sunset: 16:50 (UTC)

Tenerife / Los Rodeos, Spain (GCXO) 28-28N 016-19W 617M Nov 19, 2018 - 05:00 PM EST / 2018.11.19 2200 UTC
Wind: from the W (280 degrees) at 17 MPH (15 KT):0
Visibility: greater than 7 mile(s):0
Sky conditions: mostly clear Temperature: 55 F (13 C) Dew Point: 51 F (11 C) Relative Humidity: 87% Pressure (altimeter): 30.03 in. Hg (1017 hPa)
ob: GCXO 192200Z 28015KT 9999 FEW014 13/11 Q1017 NOSIG cycle: 22
Sunrise: 07:34 Sunset: 18:07 (UTC)

TAF:2018/11/19 21:27 TAF GCXO 192000Z 1921/2021 29016KT 9999 SCT015 TX17/2013Z TN12/2006Z TEMPO 2011/2016 12005KT PROB30 TEMPO 2014/2018 RA BKN012

Previous Pireps for this route
Date Aircraft Flight time Fuel used Landing rate On time
2012-10-28A32102.5416304-310No
2013-06-05A32102.5116238-344No
2013-10-29B7372.20200000No
2014-06-11A32102.2814963-193Yes
2014-07-15A3212.4194480No
2014-07-19A32102.3615014-185Yes
2014-10-12A3212.20170000No
2015-01-06A3212.53221550No
(pireps marked green are flown by you)

Route map